sensor_id;sensor_type;location;lat;lon;timestamp;noise_LAeq;noise_LA_min;noise_LA_max;noise_LA01;noise_LA95
72686;Laerm;61365;52.162;4.500;2023-03-05T00:02:04;47.11;35.08;62.19;;
72686;Laerm;61365;52.162;4.500;2023-03-05T00:04:31;47.13;37.69;56.00;;
72686;Laerm;61365;52.162;4.500;2023-03-05T00:06:58;47.13;37.44;56.88;;
72686;Laerm;61365;52.162;4.500;2023-03-05T00:09:24;47.28;37.05;57.30;;
72686;Laerm;61365;52.162;4.500;2023-03-05T00:11:50;47.22;37.97;60.14;;
72686;Laerm;61365;52.162;4.500;2023-03-05T00:14:17;47.08;36.95;57.42;;
72686;Laerm;61365;52.162;4.500;2023-03-05T00:16:44;47.10;37.60;57.26;;
72686;Laerm;61365;52.162;4.500;2023-03-05T00:19:10;47.15;37.81;57.40;;
72686;Laerm;61365;52.162;4.500;2023-03-05T00:21:40;47.33;37.11;58.21;;
72686;Laerm;61365;52.162;4.500;2023-03-05T00:24:12;47.19;36.56;56.56;;
72686;Laerm;61365;52.162;4.500;2023-03-05T00:26:39;47.03;36.62;56.45;;
72686;Laerm;61365;52.162;4.500;2023-03-05T00:29:16;47.22;37.73;56.93;;
72686;Laerm;61365;52.162;4.500;2023-03-05T00:31:44;47.15;37.17;56.72;;
72686;Laerm;61365;52.162;4.500;2023-03-05T00:34:14;47.24;37.56;56.74;;
72686;Laerm;61365;52.162;4.500;2023-03-05T00:36:49;47.13;37.63;57.60;;
72686;Laerm;61365;52.162;4.500;2023-03-05T00:39:18;47.15;37.57;56.84;;
72686;Laerm;61365;52.162;4.500;2023-03-05T00:41:46;47.05;37.34;57.19;;
72686;Laerm;61365;52.162;4.500;2023-03-05T00:44:13;47.11;37.38;56.83;;
72686;Laerm;61365;52.162;4.500;2023-03-05T00:46:39;47.05;37.69;57.53;;
72686;Laerm;61365;52.162;4.500;2023-03-05T00:49:06;47.01;37.51;56.57;;
72686;Laerm;61365;52.162;4.500;2023-03-05T00:51:33;47.06;37.39;56.94;;
72686;Laerm;61365;52.162;4.500;2023-03-05T00:53:59;47.15;37.22;57.13;;
72686;Laerm;61365;52.162;4.500;2023-03-05T00:56:26;47.09;37.59;56.48;;
72686;Laerm;61365;52.162;4.500;2023-03-05T00:58:52;47.35;36.85;56.75;;
72686;Laerm;61365;52.162;4.500;2023-03-05T01:01:19;47.04;36.82;56.07;;
72686;Laerm;61365;52.162;4.500;2023-03-05T01:03:45;47.16;36.71;56.89;;
72686;Laerm;61365;52.162;4.500;2023-03-05T01:06:13;47.24;37.71;56.47;;
72686;Laerm;61365;52.162;4.500;2023-03-05T01:08:43;47.09;37.19;57.27;;
72686;Laerm;61365;52.162;4.500;2023-03-05T01:11:11;47.20;37.28;56.11;;
72686;Laerm;61365;52.162;4.500;2023-03-05T01:13:38;47.00;38.16;56.99;;
72686;Laerm;61365;52.162;4.500;2023-03-05T01:16:06;47.07;38.35;60.22;;
72686;Laerm;61365;52.162;4.500;2023-03-05T01:18:33;47.08;33.03;62.06;;
72686;Laerm;61365;52.162;4.500;2023-03-05T01:20:59;47.25;37.43;56.92;;
72686;Laerm;61365;52.162;4.500;2023-03-05T01:23:26;47.03;37.59;58.97;;
72686;Laerm;61365;52.162;4.500;2023-03-05T01:25:57;47.30;36.74;56.65;;
72686;Laerm;61365;52.162;4.500;2023-03-05T01:28:25;47.25;37.43;57.15;;
72686;Laerm;61365;52.162;4.500;2023-03-05T01:30:52;47.30;37.49;59.71;;
72686;Laerm;61365;52.162;4.500;2023-03-05T01:33:21;47.35;37.66;56.77;;
72686;Laerm;61365;52.162;4.500;2023-03-05T01:35:49;47.17;37.45;57.49;;
72686;Laerm;61365;52.162;4.500;2023-03-05T01:38:16;47.10;37.85;56.54;;
72686;Laerm;61365;52.162;4.500;2023-03-05T01:40:43;47.33;37.84;57.23;;
72686;Laerm;61365;52.162;4.500;2023-03-05T01:45:39;47.21;38.04;56.49;;
72686;Laerm;61365;52.162;4.500;2023-03-05T01:48:25;46.99;38.08;57.35;;
72686;Laerm;61365;52.162;4.500;2023-03-05T01:50:52;47.09;37.55;57.37;;
72686;Laerm;61365;52.162;4.500;2023-03-05T01:53:19;47.13;37.94;56.80;;
72686;Laerm;61365;52.162;4.500;2023-03-05T01:55:45;47.09;37.42;57.33;;
72686;Laerm;61365;52.162;4.500;2023-03-05T01:58:12;47.11;37.44;57.42;;
72686;Laerm;61365;52.162;4.500;2023-03-05T02:00:45;45.97;37.68;58.12;;
72686;Laerm;61365;52.162;4.500;2023-03-05T02:03:13;45.73;37.83;58.83;;
72686;Laerm;61365;52.162;4.500;2023-03-05T02:05:43;45.72;37.64;58.13;;
72686;Laerm;61365;52.162;4.500;2023-03-05T02:08:16;45.68;38.06;60.01;;
72686;Laerm;61365;52.162;4.500;2023-03-05T02:10:46;45.60;37.98;56.83;;
72686;Laerm;61365;52.162;4.500;2023-03-05T02:13:26;45.75;33.88;62.62;;
72686;Laerm;61365;52.162;4.500;2023-03-05T02:15:57;45.61;37.28;57.36;;
72686;Laerm;61365;52.162;4.500;2023-03-05T02:18:25;45.61;37.46;59.49;;
72686;Laerm;61365;52.162;4.500;2023-03-05T02:20:59;45.71;37.88;58.15;;
72686;Laerm;61365;52.162;4.500;2023-03-05T02:23:36;45.67;37.58;57.92;;
72686;Laerm;61365;52.162;4.500;2023-03-05T02:26:09;45.63;37.69;58.05;;
72686;Laerm;61365;52.162;4.500;2023-03-05T02:28:48;45.73;37.79;57.33;;
72686;Laerm;61365;52.162;4.500;2023-03-05T02:31:20;45.82;38.08;56.98;;
72686;Laerm;61365;52.162;4.500;2023-03-05T02:33:53;45.67;38.17;57.88;;
72686;Laerm;61365;52.162;4.500;2023-03-05T02:36:21;45.68;37.74;58.63;;
72686;Laerm;61365;52.162;4.500;2023-03-05T02:38:51;45.71;37.15;58.45;;
72686;Laerm;61365;52.162;4.500;2023-03-05T02:41:18;45.63;37.91;57.42;;
72686;Laerm;61365;52.162;4.500;2023-03-05T02:43:45;45.57;38.45;57.83;;
72686;Laerm;61365;52.162;4.500;2023-03-05T02:46:11;45.66;37.92;57.87;;
72686;Laerm;61365;52.162;4.500;2023-03-05T02:48:38;45.76;37.30;57.92;;
72686;Laerm;61365;52.162;4.500;2023-03-05T02:51:06;45.73;37.35;57.67;;
72686;Laerm;61365;52.162;4.500;2023-03-05T02:53:36;45.64;37.86;57.46;;
72686;Laerm;61365;52.162;4.500;2023-03-05T02:56:02;45.67;37.51;57.75;;
72686;Laerm;61365;52.162;4.500;2023-03-05T02:58:29;45.73;38.21;57.29;;
72686;Laerm;61365;52.162;4.500;2023-03-05T03:00:56;46.54;37.67;57.00;;
72686;Laerm;61365;52.162;4.500;2023-03-05T03:03:22;46.98;34.51;62.49;;
72686;Laerm;61365;52.162;4.500;2023-03-05T03:05:48;47.10;37.18;56.66;;
72686;Laerm;61365;52.162;4.500;2023-03-05T03:08:15;47.14;37.55;56.75;;
72686;Laerm;61365;52.162;4.500;2023-03-05T03:10:41;47.12;37.09;56.79;;
72686;Laerm;61365;52.162;4.500;2023-03-05T03:13:08;47.12;37.43;56.94;;
72686;Laerm;61365;52.162;4.500;2023-03-05T03:15:34;46.98;37.42;56.91;;
72686;Laerm;61365;52.162;4.500;2023-03-05T03:18:00;47.00;37.05;56.98;;
72686;Laerm;61365;52.162;4.500;2023-03-05T03:20:29;47.13;36.78;56.75;;
72686;Laerm;61365;52.162;4.500;2023-03-05T03:22:56;47.13;37.61;57.73;;
72686;Laerm;61365;52.162;4.500;2023-03-05T03:25:22;47.08;37.45;57.42;;
72686;Laerm;61365;52.162;4.500;2023-03-05T03:27:49;47.12;36.97;57.03;;
72686;Laerm;61365;52.162;4.500;2023-03-05T03:30:15;47.16;37.09;56.58;;
72686;Laerm;61365;52.162;4.500;2023-03-05T03:32:42;47.11;37.14;57.14;;
72686;Laerm;61365;52.162;4.500;2023-03-05T03:35:10;47.17;37.32;58.57;;
72686;Laerm;61365;52.162;4.500;2023-03-05T03:37:37;47.01;37.62;57.23;;
72686;Laerm;61365;52.162;4.500;2023-03-05T03:40:06;47.16;37.55;56.68;;
72686;Laerm;61365;52.162;4.500;2023-03-05T03:42:32;47.03;37.23;57.94;;
72686;Laerm;61365;52.162;4.500;2023-03-05T03:44:59;47.13;36.74;59.22;;
72686;Laerm;61365;52.162;4.500;2023-03-05T03:47:30;46.99;37.26;57.26;;
72686;Laerm;61365;52.162;4.500;2023-03-05T03:49:57;46.92;37.50;56.18;;
72686;Laerm;61365;52.162;4.500;2023-03-05T03:52:26;47.07;37.59;56.88;;
72686;Laerm;61365;52.162;4.500;2023-03-05T03:54:53;47.07;37.84;56.67;;
72686;Laerm;61365;52.162;4.500;2023-03-05T03:57:30;47.06;37.55;56.56;;
72686;Laerm;61365;52.162;4.500;2023-03-05T03:59:59;47.13;34.62;62.64;;
72686;Laerm;61365;52.162;4.500;2023-03-05T04:02:26;47.08;36.86;57.01;;
72686;Laerm;61365;52.162;4.500;2023-03-05T04:04:52;46.96;37.23;56.87;;
72686;Laerm;61365;52.162;4.500;2023-03-05T04:07:19;47.07;37.19;60.07;;
72686;Laerm;61365;52.162;4.500;2023-03-05T04:09:45;46.96;37.89;59.95;;
72686;Laerm;61365;52.162;4.500;2023-03-05T04:12:14;46.88;37.36;58.17;;
72686;Laerm;61365;52.162;4.500;2023-03-05T04:14:48;47.12;37.03;57.88;;
72686;Laerm;61365;52.162;4.500;2023-03-05T04:17:15;46.90;37.34;56.68;;
72686;Laerm;61365;52.162;4.500;2023-03-05T04:19:43;47.17;36.96;57.22;;
72686;Laerm;61365;52.162;4.500;2023-03-05T04:22:12;46.93;36.67;58.40;;
72686;Laerm;61365;52.162;4.500;2023-03-05T04:24:39;47.11;37.97;57.46;;
72686;Laerm;61365;52.162;4.500;2023-03-05T04:27:06;46.96;37.34;57.68;;
72686;Laerm;61365;52.162;4.500;2023-03-05T04:29:33;46.95;37.59;57.41;;
72686;Laerm;61365;52.162;4.500;2023-03-05T04:32:00;47.18;37.32;57.34;;
72686;Laerm;61365;52.162;4.500;2023-03-05T04:34:27;47.25;37.13;56.72;;
72686;Laerm;61365;52.162;4.500;2023-03-05T04:36:53;47.16;37.85;58.30;;
72686;Laerm;61365;52.162;4.500;2023-03-05T04:39:20;47.08;37.57;57.46;;
72686;Laerm;61365;52.162;4.500;2023-03-05T04:41:47;47.06;36.91;57.12;;
72686;Laerm;61365;52.162;4.500;2023-03-05T04:44:14;46.99;38.29;57.99;;
72686;Laerm;61365;52.162;4.500;2023-03-05T04:46:43;47.12;38.19;58.23;;
72686;Laerm;61365;52.162;4.500;2023-03-05T04:49:09;47.25;36.80;57.76;;
72686;Laerm;61365;52.162;4.500;2023-03-05T04:51:35;47.24;38.04;60.82;;
72686;Laerm;61365;52.162;4.500;2023-03-05T04:54:02;47.11;36.84;57.87;;
72686;Laerm;61365;52.162;4.500;2023-03-05T04:56:28;47.14;37.09;59.91;;
72686;Laerm;61365;52.162;4.500;2023-03-05T04:58:55;47.06;36.87;57.11;;
72686;Laerm;61365;52.162;4.500;2023-03-05T05:01:21;47.18;37.11;58.44;;
72686;Laerm;61365;52.162;4.500;2023-03-05T05:03:50;47.03;38.15;57.63;;
72686;Laerm;61365;52.162;4.500;2023-03-05T05:06:17;47.08;37.30;57.25;;
72686;Laerm;61365;52.162;4.500;2023-03-05T05:08:43;47.08;37.66;56.82;;
72686;Laerm;61365;52.162;4.500;2023-03-05T05:11:13;47.19;37.23;57.79;;
72686;Laerm;61365;52.162;4.500;2023-03-05T05:13:39;47.00;37.03;57.38;;
72686;Laerm;61365;52.162;4.500;2023-03-05T05:16:07;46.39;37.03;57.85;;
72686;Laerm;61365;52.162;4.500;2023-03-05T05:18:33;47.19;37.23;57.85;;
72686;Laerm;61365;52.162;4.500;2023-03-05T05:21:00;46.97;37.43;58.08;;
72686;Laerm;61365;52.162;4.500;2023-03-05T05:23:26;46.97;37.52;57.32;;
72686;Laerm;61365;52.162;4.500;2023-03-05T05:26:03;46.91;37.20;57.23;;
72686;Laerm;61365;52.162;4.500;2023-03-05T05:28:30;47.08;37.05;59.31;;
72686;Laerm;61365;52.162;4.500;2023-03-05T05:30:56;47.08;36.98;59.15;;
72686;Laerm;61365;52.162;4.500;2023-03-05T05:33:24;47.16;37.29;60.58;;
72686;Laerm;61365;52.162;4.500;2023-03-05T05:35:51;46.98;37.30;57.90;;
72686;Laerm;61365;52.162;4.500;2023-03-05T05:38:18;47.15;37.96;57.82;;
72686;Laerm;61365;52.162;4.500;2023-03-05T05:40:44;46.88;37.07;57.95;;
72686;Laerm;61365;52.162;4.500;2023-03-05T05:43:11;46.96;37.23;57.72;;
72686;Laerm;61365;52.162;4.500;2023-03-05T05:45:37;47.02;37.28;56.77;;
72686;Laerm;61365;52.162;4.500;2023-03-05T05:48:04;47.03;37.03;57.15;;
72686;Laerm;61365;52.162;4.500;2023-03-05T05:50:31;47.11;36.86;59.45;;
72686;Laerm;61365;52.162;4.500;2023-03-05T05:52:57;47.15;36.86;57.89;;
72686;Laerm;61365;52.162;4.500;2023-03-05T05:55:24;47.00;37.65;58.01;;
72686;Laerm;61365;52.162;4.500;2023-03-05T05:57:50;47.01;36.56;57.63;;
72686;Laerm;61365;52.162;4.500;2023-03-05T06:00:17;47.14;37.05;56.95;;
72686;Laerm;61365;52.162;4.500;2023-03-05T06:02:44;47.23;36.78;59.62;;
72686;Laerm;61365;52.162;4.500;2023-03-05T06:05:12;47.06;37.32;57.96;;
72686;Laerm;61365;52.162;4.500;2023-03-05T06:07:40;46.99;37.80;57.51;;
72686;Laerm;61365;52.162;4.500;2023-03-05T06:10:09;46.94;37.14;59.03;;
72686;Laerm;61365;52.162;4.500;2023-03-05T06:12:35;47.20;37.13;58.96;;
72686;Laerm;61365;52.162;4.500;2023-03-05T06:15:02;47.09;37.06;57.13;;
72686;Laerm;61365;52.162;4.500;2023-03-05T06:17:29;47.16;37.38;57.04;;
72686;Laerm;61365;52.162;4.500;2023-03-05T06:19:55;47.22;36.91;58.50;;
72686;Laerm;61365;52.162;4.500;2023-03-05T06:22:25;47.23;37.34;58.24;;
72686;Laerm;61365;52.162;4.500;2023-03-05T06:24:52;47.24;37.31;59.99;;
72686;Laerm;61365;52.162;4.500;2023-03-05T06:27:18;47.16;37.28;56.29;;
72686;Laerm;61365;52.162;4.500;2023-03-05T06:29:45;47.23;36.60;56.62;;
72686;Laerm;61365;52.162;4.500;2023-03-05T06:32:11;47.22;36.67;57.98;;
72686;Laerm;61365;52.162;4.500;2023-03-05T06:34:38;47.14;36.58;56.94;;
72686;Laerm;61365;52.162;4.500;2023-03-05T06:37:04;47.18;37.27;57.53;;
72686;Laerm;61365;52.162;4.500;2023-03-05T06:39:31;47.15;36.94;57.86;;
72686;Laerm;61365;52.162;4.500;2023-03-05T06:41:57;47.13;37.20;60.45;;
72686;Laerm;61365;52.162;4.500;2023-03-05T06:44:24;47.15;36.93;57.66;;
72686;Laerm;61365;52.162;4.500;2023-03-05T06:46:50;47.16;37.94;57.66;;
72686;Laerm;61365;52.162;4.500;2023-03-05T06:49:17;47.09;37.49;57.05;;
72686;Laerm;61365;52.162;4.500;2023-03-05T06:51:43;47.09;37.45;57.57;;
72686;Laerm;61365;52.162;4.500;2023-03-05T06:54:13;47.09;37.80;58.43;;
72686;Laerm;61365;52.162;4.500;2023-03-05T06:56:44;47.05;37.12;57.81;;
72686;Laerm;61365;52.162;4.500;2023-03-05T06:59:13;47.19;35.73;58.68;;
72686;Laerm;61365;52.162;4.500;2023-03-05T07:01:41;46.99;36.87;56.83;;
72686;Laerm;61365;52.162;4.500;2023-03-05T07:04:08;47.23;37.13;57.99;;
72686;Laerm;61365;52.162;4.500;2023-03-05T07:06:36;47.19;37.30;58.18;;
72686;Laerm;61365;52.162;4.500;2023-03-05T07:09:13;47.05;37.53;56.88;;
72686;Laerm;61365;52.162;4.500;2023-03-05T07:11:40;47.19;37.57;61.64;;
72686;Laerm;61365;52.162;4.500;2023-03-05T07:14:06;47.17;36.63;57.51;;
72686;Laerm;61365;52.162;4.500;2023-03-05T07:16:34;47.21;37.93;58.72;;
72686;Laerm;61365;52.162;4.500;2023-03-05T07:19:04;46.97;37.44;62.11;;
72686;Laerm;61365;52.162;4.500;2023-03-05T07:21:33;47.13;36.88;60.88;;
72686;Laerm;61365;52.162;4.500;2023-03-05T07:24:02;47.12;37.39;56.67;;
72686;Laerm;61365;52.162;4.500;2023-03-05T07:26:29;46.59;37.60;57.78;;
72686;Laerm;61365;52.162;4.500;2023-03-05T07:28:56;45.70;37.73;59.11;;
72686;Laerm;61365;52.162;4.500;2023-03-05T07:31:24;46.21;37.78;57.20;;
72686;Laerm;61365;52.162;4.500;2023-03-05T07:33:57;47.18;37.38;58.65;;
72686;Laerm;61365;52.162;4.500;2023-03-05T07:36:25;47.18;37.35;57.60;;
72686;Laerm;61365;52.162;4.500;2023-03-05T07:38:52;47.24;36.97;60.26;;
72686;Laerm;61365;52.162;4.500;2023-03-05T07:41:19;47.34;37.78;59.58;;
72686;Laerm;61365;52.162;4.500;2023-03-05T07:43:50;47.40;37.21;57.59;;
72686;Laerm;61365;52.162;4.500;2023-03-05T07:46:22;47.31;36.66;58.19;;
72686;Laerm;61365;52.162;4.500;2023-03-05T07:48:49;46.89;37.47;56.79;;
72686;Laerm;61365;52.162;4.500;2023-03-05T07:51:18;47.25;37.54;57.67;;
72686;Laerm;61365;52.162;4.500;2023-03-05T07:53:47;47.07;37.21;58.55;;
72686;Laerm;61365;52.162;4.500;2023-03-05T07:56:26;47.00;37.30;56.58;;
72686;Laerm;61365;52.162;4.500;2023-03-05T07:58:58;47.29;37.45;58.25;;
72686;Laerm;61365;52.162;4.500;2023-03-05T08:01:25;45.95;37.79;58.70;;
72686;Laerm;61365;52.162;4.500;2023-03-05T08:03:51;45.77;37.78;58.14;;
72686;Laerm;61365;52.162;4.500;2023-03-05T08:06:17;45.82;37.50;57.24;;
72686;Laerm;61365;52.162;4.500;2023-03-05T08:08:44;45.65;37.62;58.39;;
72686;Laerm;61365;52.162;4.500;2023-03-05T08:11:14;45.78;37.63;57.07;;
72686;Laerm;61365;52.162;4.500;2023-03-05T08:13:42;45.86;37.95;57.86;;
72686;Laerm;61365;52.162;4.500;2023-03-05T08:16:17;45.90;38.08;57.99;;
72686;Laerm;61365;52.162;4.500;2023-03-05T08:18:45;45.82;37.82;56.88;;
72686;Laerm;61365;52.162;4.500;2023-03-05T08:21:34;45.70;37.32;58.17;;
72686;Laerm;61365;52.162;4.500;2023-03-05T08:24:05;45.72;37.41;57.06;;
72686;Laerm;61365;52.162;4.500;2023-03-05T08:26:34;45.86;38.28;57.57;;
72686;Laerm;61365;52.162;4.500;2023-03-05T08:29:01;45.76;37.91;57.83;;
72686;Laerm;61365;52.162;4.500;2023-03-05T08:31:29;45.79;38.38;57.47;;
72686;Laerm;61365;52.162;4.500;2023-03-05T08:33:58;47.27;37.89;57.77;;
72686;Laerm;61365;52.162;4.500;2023-03-05T08:36:29;47.57;38.18;58.01;;
72686;Laerm;61365;52.162;4.500;2023-03-05T08:38:57;47.52;38.30;57.21;;
72686;Laerm;61365;52.162;4.500;2023-03-05T08:41:28;47.48;37.89;57.37;;
72686;Laerm;61365;52.162;4.500;2023-03-05T08:43:54;47.57;37.58;56.67;;
72686;Laerm;61365;52.162;4.500;2023-03-05T08:46:21;47.39;37.99;57.08;;
72686;Laerm;61365;52.162;4.500;2023-03-05T08:48:47;47.50;38.31;57.20;;
72686;Laerm;61365;52.162;4.500;2023-03-05T08:51:18;47.36;37.88;57.63;;
72686;Laerm;61365;52.162;4.500;2023-03-05T08:53:46;47.24;38.13;56.72;;
72686;Laerm;61365;52.162;4.500;2023-03-05T08:56:14;47.35;37.14;58.44;;
72686;Laerm;61365;52.162;4.500;2023-03-05T08:58:41;47.36;36.47;57.32;;
72686;Laerm;61365;52.162;4.500;2023-03-05T09:01:07;47.30;34.62;62.50;;
72686;Laerm;61365;52.162;4.500;2023-03-05T09:03:34;47.32;36.90;56.56;;
72686;Laerm;61365;52.162;4.500;2023-03-05T09:06:05;47.33;37.16;57.92;;
72686;Laerm;61365;52.162;4.500;2023-03-05T09:08:33;47.32;37.82;57.30;;
72686;Laerm;61365;52.162;4.500;2023-03-05T09:11:05;47.13;37.55;56.04;;
72686;Laerm;61365;52.162;4.500;2023-03-05T09:13:36;47.41;37.61;56.67;;
72686;Laerm;61365;52.162;4.500;2023-03-05T09:16:06;47.32;37.85;56.70;;
72686;Laerm;61365;52.162;4.500;2023-03-05T09:18:34;46.70;36.30;57.61;;
72686;Laerm;61365;52.162;4.500;2023-03-05T09:21:16;45.66;37.74;56.73;;
72686;Laerm;61365;52.162;4.500;2023-03-05T09:23:44;45.79;37.70;57.90;;
72686;Laerm;61365;52.162;4.500;2023-03-05T09:26:14;45.80;37.66;58.03;;
72686;Laerm;61365;52.162;4.500;2023-03-05T09:28:45;45.90;33.51;62.56;;
72686;Laerm;61365;52.162;4.500;2023-03-05T09:31:11;45.83;37.92;58.14;;
72686;Laerm;61365;52.162;4.500;2023-03-05T09:33:38;45.77;38.19;57.77;;
72686;Laerm;61365;52.162;4.500;2023-03-05T09:36:26;46.25;37.55;57.48;;
72686;Laerm;61365;52.162;4.500;2023-03-05T09:38:53;47.31;35.62;56.79;;
72686;Laerm;61365;52.162;4.500;2023-03-05T09:44:43;47.27;37.59;56.24;;
72686;Laerm;61365;52.162;4.500;2023-03-05T09:53:22;47.31;37.44;57.11;;
72686;Laerm;61365;52.162;4.500;2023-03-05T09:55:54;47.43;36.95;57.26;;
72686;Laerm;61365;52.162;4.500;2023-03-05T09:58:38;47.29;37.32;56.91;;
72686;Laerm;61365;52.162;4.500;2023-03-05T10:04:12;47.15;36.87;58.93;;
72686;Laerm;61365;52.162;4.500;2023-03-05T10:09:46;47.29;37.87;56.73;;
72686;Laerm;61365;52.162;4.500;2023-03-05T10:12:44;47.41;37.65;57.18;;
72686;Laerm;61365;52.162;4.500;2023-03-05T10:15:48;47.50;36.94;59.95;;
72686;Laerm;61365;52.162;4.500;2023-03-05T10:18:36;47.44;37.88;56.50;;
72686;Laerm;61365;52.162;4.500;2023-03-05T10:24:29;47.34;37.27;57.50;;
72686;Laerm;61365;52.162;4.500;2023-03-05T10:27:18;47.24;38.09;56.41;;
72686;Laerm;61365;52.162;4.500;2023-03-05T10:37:28;47.47;37.03;56.40;;
72686;Laerm;61365;52.162;4.500;2023-03-05T10:40:23;47.63;37.39;56.97;;
72686;Laerm;61365;52.162;4.500;2023-03-05T10:45:42;47.38;37.47;56.24;;
72686;Laerm;61365;52.162;4.500;2023-03-05T10:48:42;47.51;37.24;57.69;;
72686;Laerm;61365;52.162;4.500;2023-03-05T10:51:40;47.35;37.30;56.93;;
72686;Laerm;61365;52.162;4.500;2023-03-05T10:54:25;47.47;37.30;57.35;;
72686;Laerm;61365;52.162;4.500;2023-03-05T10:57:17;47.36;37.94;57.18;;
72686;Laerm;61365;52.162;4.500;2023-03-05T11:00:25;47.41;37.11;61.01;;
72686;Laerm;61365;52.162;4.500;2023-03-05T11:08:31;47.36;36.88;59.74;;
72686;Laerm;61365;52.162;4.500;2023-03-05T11:11:10;47.47;38.18;57.29;;
72686;Laerm;61365;52.162;4.500;2023-03-05T11:13:58;45.76;38.16;59.83;;
72686;Laerm;61365;52.162;4.500;2023-03-05T11:16:31;45.83;38.25;56.98;;
72686;Laerm;61365;52.162;4.500;2023-03-05T11:19:20;45.85;37.63;59.77;;
72686;Laerm;61365;52.162;4.500;2023-03-05T11:22:19;46.60;37.52;56.36;;
72686;Laerm;61365;52.162;4.500;2023-03-05T11:30:33;47.44;35.33;61.35;;
72686;Laerm;61365;52.162;4.500;2023-03-05T11:33:14;47.38;37.62;60.07;;
72686;Laerm;61365;52.162;4.500;2023-03-05T11:35:42;47.31;37.69;56.57;;
72686;Laerm;61365;52.162;4.500;2023-03-05T11:38:23;47.49;37.85;56.12;;
72686;Laerm;61365;52.162;4.500;2023-03-05T11:40:54;47.73;38.09;59.39;;
72686;Laerm;61365;52.162;4.500;2023-03-05T11:43:24;47.63;38.29;56.48;;
72686;Laerm;61365;52.162;4.500;2023-03-05T11:46:01;47.29;37.61;56.20;;
72686;Laerm;61365;52.162;4.500;2023-03-05T11:48:35;47.37;38.23;55.65;;
72686;Laerm;61365;52.162;4.500;2023-03-05T11:51:19;47.40;36.89;56.52;;
72686;Laerm;61365;52.162;4.500;2023-03-05T11:53:55;47.57;38.00;56.10;;
72686;Laerm;61365;52.162;4.500;2023-03-05T11:56:32;47.55;38.57;55.88;;
72686;Laerm;61365;52.162;4.500;2023-03-05T11:59:34;47.62;37.95;57.28;;
72686;Laerm;61365;52.162;4.500;2023-03-05T12:02:18;47.47;38.12;57.61;;
72686;Laerm;61365;52.162;4.500;2023-03-05T12:04:46;47.46;38.04;57.76;;
72686;Laerm;61365;52.162;4.500;2023-03-05T12:07:20;47.59;38.15;56.30;;
72686;Laerm;61365;52.162;4.500;2023-03-05T12:09:51;47.48;38.61;56.15;;
72686;Laerm;61365;52.162;4.500;2023-03-05T12:12:43;47.56;38.29;56.88;;
72686;Laerm;61365;52.162;4.500;2023-03-05T12:16:10;47.70;38.36;56.88;;
72686;Laerm;61365;52.162;4.500;2023-03-05T12:21:41;47.48;37.65;56.76;;
72686;Laerm;61365;52.162;4.500;2023-03-05T12:24:37;47.53;37.64;59.46;;
72686;Laerm;61365;52.162;4.500;2023-03-05T12:27:11;47.64;37.70;56.57;;
72686;Laerm;61365;52.162;4.500;2023-03-05T12:29:50;47.53;37.40;57.30;;
72686;Laerm;61365;52.162;4.500;2023-03-05T12:40:02;47.50;38.40;59.31;;
72686;Laerm;61365;52.162;4.500;2023-03-05T12:56:00;47.75;38.95;56.05;;
72686;Laerm;61365;52.162;4.500;2023-03-05T12:58:49;47.58;38.10;56.06;;
72686;Laerm;61365;52.162;4.500;2023-03-05T13:01:41;47.84;38.14;56.03;;
72686;Laerm;61365;52.162;4.500;2023-03-05T13:04:19;47.65;38.96;59.00;;
72686;Laerm;61365;52.162;4.500;2023-03-05T13:07:17;47.59;37.84;56.04;;
72686;Laerm;61365;52.162;4.500;2023-03-05T13:09:56;47.57;38.76;56.26;;
72686;Laerm;61365;52.162;4.500;2023-03-05T13:12:28;47.57;37.20;57.31;;
72686;Laerm;61365;52.162;4.500;2023-03-05T13:17:37;47.47;38.54;57.67;;
72686;Laerm;61365;52.162;4.500;2023-03-05T13:20:39;47.55;34.77;61.11;;
72686;Laerm;61365;52.162;4.500;2023-03-05T13:23:51;47.68;37.13;56.09;;
72686;Laerm;61365;52.162;4.500;2023-03-05T13:26:38;47.60;38.81;57.43;;
72686;Laerm;61365;52.162;4.500;2023-03-05T13:29:18;47.62;38.63;57.76;;
72686;Laerm;61365;52.162;4.500;2023-03-05T13:34:35;47.59;37.81;56.64;;
72686;Laerm;61365;52.162;4.500;2023-03-05T13:39:54;47.54;38.78;59.79;;
72686;Laerm;61365;52.162;4.500;2023-03-05T13:42:33;47.81;37.97;56.41;;
72686;Laerm;61365;52.162;4.500;2023-03-05T13:45:15;47.58;38.11;56.80;;
72686;Laerm;61365;52.162;4.500;2023-03-05T13:48:00;47.58;38.47;55.99;;
72686;Laerm;61365;52.162;4.500;2023-03-05T13:50:34;47.52;38.36;56.04;;
72686;Laerm;61365;52.162;4.500;2023-03-05T13:53:24;47.60;38.82;56.77;;
72686;Laerm;61365;52.162;4.500;2023-03-05T13:56:04;47.55;38.06;56.13;;
72686;Laerm;61365;52.162;4.500;2023-03-05T13:58:52;47.53;38.22;56.63;;
72686;Laerm;61365;52.162;4.500;2023-03-05T14:01:31;47.67;37.74;56.74;;
72686;Laerm;61365;52.162;4.500;2023-03-05T14:04:17;47.56;38.45;57.07;;
72686;Laerm;61365;52.162;4.500;2023-03-05T14:07:05;47.63;38.59;55.83;;
72686;Laerm;61365;52.162;4.500;2023-03-05T14:12:22;47.63;38.12;57.85;;
72686;Laerm;61365;52.162;4.500;2023-03-05T14:14:50;47.62;39.68;56.11;;
72686;Laerm;61365;52.162;4.500;2023-03-05T14:17:40;47.51;38.06;56.21;;
72686;Laerm;61365;52.162;4.500;2023-03-05T14:20:27;47.49;38.64;57.48;;
72686;Laerm;61365;52.162;4.500;2023-03-05T14:23:00;47.66;38.72;57.31;;
72686;Laerm;61365;52.162;4.500;2023-03-05T14:25:38;47.69;36.46;56.36;;
72686;Laerm;61365;52.162;4.500;2023-03-05T14:28:26;47.58;38.80;55.87;;
72686;Laerm;61365;52.162;4.500;2023-03-05T14:30:56;47.55;37.70;55.39;;
72686;Laerm;61365;52.162;4.500;2023-03-05T14:33:27;47.58;37.80;55.85;;
72686;Laerm;61365;52.162;4.500;2023-03-05T14:35:56;47.43;38.47;56.02;;
72686;Laerm;61365;52.162;4.500;2023-03-05T14:38:31;47.65;38.49;56.17;;
72686;Laerm;61365;52.162;4.500;2023-03-05T14:41:38;47.51;38.38;56.77;;
72686;Laerm;61365;52.162;4.500;2023-03-05T14:44:16;47.33;38.90;56.45;;
72686;Laerm;61365;52.162;4.500;2023-03-05T14:46:48;47.58;37.46;55.98;;
72686;Laerm;61365;52.162;4.500;2023-03-05T14:49:16;47.34;37.60;56.96;;
72686;Laerm;61365;52.162;4.500;2023-03-05T14:51:45;47.62;38.52;56.75;;
72686;Laerm;61365;52.162;4.500;2023-03-05T14:54:24;47.50;37.64;56.17;;
72686;Laerm;61365;52.162;4.500;2023-03-05T14:56:51;47.36;37.79;55.76;;
72686;Laerm;61365;52.162;4.500;2023-03-05T14:59:18;47.52;38.53;58.17;;
72686;Laerm;61365;52.162;4.500;2023-03-05T15:01:48;47.34;38.18;56.22;;
72686;Laerm;61365;52.162;4.500;2023-03-05T15:04:15;47.40;38.27;58.08;;
72686;Laerm;61365;52.162;4.500;2023-03-05T15:06:45;47.50;37.60;59.86;;
72686;Laerm;61365;52.162;4.500;2023-03-05T15:09:17;47.12;38.00;56.51;;
72686;Laerm;61365;52.162;4.500;2023-03-05T15:11:45;47.53;37.45;57.42;;
72686;Laerm;61365;52.162;4.500;2023-03-05T15:14:14;47.46;38.37;57.24;;
72686;Laerm;61365;52.162;4.500;2023-03-05T15:16:43;47.43;38.72;61.01;;
72686;Laerm;61365;52.162;4.500;2023-03-05T15:19:11;47.56;38.10;57.13;;
72686;Laerm;61365;52.162;4.500;2023-03-05T15:21:38;47.55;33.32;61.95;;
72686;Laerm;61365;52.162;4.500;2023-03-05T15:24:05;47.51;37.73;56.59;;
72686;Laerm;61365;52.162;4.500;2023-03-05T15:26:34;47.43;37.98;56.91;;
72686;Laerm;61365;52.162;4.500;2023-03-05T15:29:02;47.60;38.53;57.16;;